sensor_id;sensor_type;location;lat;lon;timestamp;P1;durP1;ratioP1;P2;durP2;ratioP2
9801;SDS011;4940;50.900;4.672;2023-07-29T00:00:57;40.85;;;37.35;;
9801;SDS011;4940;50.900;4.672;2023-07-29T00:03:25;45.70;;;41.92;;
9801;SDS011;4940;50.900;4.672;2023-07-29T00:05:56;43.15;;;39.50;;
9801;SDS011;4940;50.900;4.672;2023-07-29T00:08:23;40.92;;;37.40;;
9801;SDS011;4940;50.900;4.672;2023-07-29T00:10:51;39.47;;;36.25;;
9801;SDS011;4940;50.900;4.672;2023-07-29T00:13:18;42.78;;;39.28;;
9801;SDS011;4940;50.900;4.672;2023-07-29T00:15:45;41.55;;;38.05;;
9801;SDS011;4940;50.900;4.672;2023-07-29T00:18:12;43.63;;;40.03;;
9801;SDS011;4940;50.900;4.672;2023-07-29T00:20:40;40.28;;;36.88;;
9801;SDS011;4940;50.900;4.672;2023-07-29T00:23:09;44.50;;;40.90;;
9801;SDS011;4940;50.900;4.672;2023-07-29T00:25:36;44.55;;;40.95;;
9801;SDS011;4940;50.900;4.672;2023-07-29T00:28:03;47.22;;;43.67;;
9801;SDS011;4940;50.900;4.672;2023-07-29T00:30:31;42.58;;;39.17;;
9801;SDS011;4940;50.900;4.672;2023-07-29T00:32:58;48.53;;;44.83;;
9801;SDS011;4940;50.900;4.672;2023-07-29T00:35:26;49.05;;;45.40;;
9801;SDS011;4940;50.900;4.672;2023-07-29T00:37:53;53.60;;;49.70;;
9801;SDS011;4940;50.900;4.672;2023-07-29T00:40:22;49.65;;;45.95;;
9801;SDS011;4940;50.900;4.672;2023-07-29T00:42:49;40.60;;;37.70;;
9801;SDS011;4940;50.900;4.672;2023-07-29T00:45:17;45.03;;;41.92;;
9801;SDS011;4940;50.900;4.672;2023-07-29T00:47:44;43.05;;;39.95;;
9801;SDS011;4940;50.900;4.672;2023-07-29T00:50:12;50.63;;;47.13;;
9801;SDS011;4940;50.900;4.672;2023-07-29T00:52:41;51.05;;;47.25;;
9801;SDS011;4940;50.900;4.672;2023-07-29T00:55:08;44.38;;;40.97;;
9801;SDS011;4940;50.900;4.672;2023-07-29T00:57:36;46.28;;;42.88;;
9801;SDS011;4940;50.900;4.672;2023-07-29T01:00:05;43.10;;;39.90;;
9801;SDS011;4940;50.900;4.672;2023-07-29T01:02:33;43.63;;;40.42;;
9801;SDS011;4940;50.900;4.672;2023-07-29T01:05:01;44.17;;;40.78;;
9801;SDS011;4940;50.900;4.672;2023-07-29T01:07:30;49.13;;;45.60;;
9801;SDS011;4940;50.900;4.672;2023-07-29T01:10:10;46.67;;;43.38;;
9801;SDS011;4940;50.900;4.672;2023-07-29T01:12:47;44.78;;;41.47;;
9801;SDS011;4940;50.900;4.672;2023-07-29T01:15:22;43.17;;;39.97;;
9801;SDS011;4940;50.900;4.672;2023-07-29T01:17:54;40.55;;;37.65;;
9801;SDS011;4940;50.900;4.672;2023-07-29T01:20:25;37.95;;;35.22;;
9801;SDS011;4940;50.900;4.672;2023-07-29T01:22:54;42.97;;;39.63;;
9801;SDS011;4940;50.900;4.672;2023-07-29T01:25:22;50.97;;;47.47;;
9801;SDS011;4940;50.900;4.672;2023-07-29T01:27:50;54.28;;;50.67;;
9801;SDS011;4940;50.900;4.672;2023-07-29T01:30:18;39.05;;;36.17;;
9801;SDS011;4940;50.900;4.672;2023-07-29T01:32:48;44.35;;;41.25;;
9801;SDS011;4940;50.900;4.672;2023-07-29T01:35:22;45.40;;;42.20;;
9801;SDS011;4940;50.900;4.672;2023-07-29T01:37:52;42.40;;;39.30;;
9801;SDS011;4940;50.900;4.672;2023-07-29T01:40:24;45.00;;;41.80;;
9801;SDS011;4940;50.900;4.672;2023-07-29T01:42:53;47.08;;;43.70;;
9801;SDS011;4940;50.900;4.672;2023-07-29T01:45:23;44.22;;;41.13;;
9801;SDS011;4940;50.900;4.672;2023-07-29T01:47:51;43.03;;;39.63;;
9801;SDS011;4940;50.900;4.672;2023-07-29T01:50:18;42.88;;;39.78;;
9801;SDS011;4940;50.900;4.672;2023-07-29T01:52:45;45.05;;;41.95;;
9801;SDS011;4940;50.900;4.672;2023-07-29T01:55:13;43.35;;;40.25;;
9801;SDS011;4940;50.900;4.672;2023-07-29T01:57:41;40.58;;;37.47;;
9801;SDS011;4940;50.900;4.672;2023-07-29T02:00:10;42.45;;;39.30;;
9801;SDS011;4940;50.900;4.672;2023-07-29T02:02:38;46.35;;;43.08;;
9801;SDS011;4940;50.900;4.672;2023-07-29T02:05:05;35.05;;;32.55;;
9801;SDS011;4940;50.900;4.672;2023-07-29T02:07:33;43.72;;;40.53;;
9801;SDS011;4940;50.900;4.672;2023-07-29T02:10:00;38.33;;;35.53;;
9801;SDS011;4940;50.900;4.672;2023-07-29T02:12:28;42.88;;;39.67;;
9801;SDS011;4940;50.900;4.672;2023-07-29T02:14:57;41.53;;;38.33;;
9801;SDS011;4940;50.900;4.672;2023-07-29T02:17:24;44.28;;;40.97;;
9801;SDS011;4940;50.900;4.672;2023-07-29T02:19:52;47.22;;;43.78;;
9801;SDS011;4940;50.900;4.672;2023-07-29T02:22:19;44.47;;;41.08;;
9801;SDS011;4940;50.900;4.672;2023-07-29T02:24:47;45.08;;;41.83;;
9801;SDS011;4940;50.900;4.672;2023-07-29T02:27:14;46.10;;;42.70;;
9801;SDS011;4940;50.900;4.672;2023-07-29T02:29:41;44.00;;;40.50;;
9801;SDS011;4940;50.900;4.672;2023-07-29T02:32:10;45.08;;;41.67;;
9801;SDS011;4940;50.900;4.672;2023-07-29T02:34:37;49.13;;;45.60;;
9801;SDS011;4940;50.900;4.672;2023-07-29T02:37:05;50.78;;;47.17;;
9801;SDS011;4940;50.900;4.672;2023-07-29T02:39:32;37.60;;;34.88;;
9801;SDS011;4940;50.900;4.672;2023-07-29T02:42:00;38.95;;;36.08;;
9801;SDS011;4940;50.900;4.672;2023-07-29T02:44:27;41.85;;;38.75;;
9801;SDS011;4940;50.900;4.672;2023-07-29T02:46:54;41.20;;;38.20;;
9801;SDS011;4940;50.900;4.672;2023-07-29T02:49:23;45.83;;;42.42;;
9801;SDS011;4940;50.900;4.672;2023-07-29T02:51:50;45.13;;;41.83;;
9801;SDS011;4940;50.900;4.672;2023-07-29T02:54:18;45.95;;;42.55;;
9801;SDS011;4940;50.900;4.672;2023-07-29T02:56:45;44.08;;;40.72;;
9801;SDS011;4940;50.900;4.672;2023-07-29T02:59:12;46.78;;;43.25;;
9801;SDS011;4940;50.900;4.672;2023-07-29T03:01:40;44.83;;;41.38;;
9801;SDS011;4940;50.900;4.672;2023-07-29T03:04:07;46.45;;;42.90;;
9801;SDS011;4940;50.900;4.672;2023-07-29T03:06:36;42.65;;;39.20;;
9801;SDS011;4940;50.900;4.672;2023-07-29T03:09:03;46.08;;;42.63;;
9801;SDS011;4940;50.900;4.672;2023-07-29T03:11:31;45.45;;;41.97;;
9801;SDS011;4940;50.900;4.672;2023-07-29T03:13:58;38.08;;;35.17;;
9801;SDS011;4940;50.900;4.672;2023-07-29T03:16:26;41.50;;;38.40;;
9801;SDS011;4940;50.900;4.672;2023-07-29T03:18:53;42.88;;;39.47;;
9801;SDS011;4940;50.900;4.672;2023-07-29T03:21:20;43.45;;;40.15;;
9801;SDS011;4940;50.900;4.672;2023-07-29T03:23:49;44.15;;;40.45;;
9801;SDS011;4940;50.900;4.672;2023-07-29T03:26:17;45.97;;;42.30;;
9801;SDS011;4940;50.900;4.672;2023-07-29T03:28:44;41.42;;;38.33;;
9801;SDS011;4940;50.900;4.672;2023-07-29T03:31:11;46.42;;;42.83;;
9801;SDS011;4940;50.900;4.672;2023-07-29T03:33:39;45.80;;;42.10;;
9801;SDS011;4940;50.900;4.672;2023-07-29T03:36:06;46.05;;;42.05;;
9801;SDS011;4940;50.900;4.672;2023-07-29T03:38:34;49.58;;;45.40;;
9801;SDS011;4940;50.900;4.672;2023-07-29T03:41:06;41.80;;;38.53;;
9801;SDS011;4940;50.900;4.672;2023-07-29T03:43:34;39.45;;;36.25;;
9801;SDS011;4940;50.900;4.672;2023-07-29T03:46:01;46.08;;;42.33;;
9801;SDS011;4940;50.900;4.672;2023-07-29T03:48:28;39.78;;;36.67;;
9801;SDS011;4940;50.900;4.672;2023-07-29T03:50:56;36.28;;;33.40;;
9801;SDS011;4940;50.900;4.672;2023-07-29T03:53:23;47.20;;;43.60;;
9801;SDS011;4940;50.900;4.672;2023-07-29T03:55:51;46.17;;;42.65;;
9801;SDS011;4940;50.900;4.672;2023-07-29T03:58:19;45.28;;;41.47;;
9801;SDS011;4940;50.900;4.672;2023-07-29T04:00:47;45.70;;;42.08;;
9801;SDS011;4940;50.900;4.672;2023-07-29T04:03:14;52.60;;;48.70;;
9801;SDS011;4940;50.900;4.672;2023-07-29T04:05:41;51.70;;;47.60;;
9801;SDS011;4940;50.900;4.672;2023-07-29T04:08:09;42.78;;;39.38;;
9801;SDS011;4940;50.900;4.672;2023-07-29T04:10:36;49.35;;;45.55;;
9801;SDS011;4940;50.900;4.672;2023-07-29T04:13:03;41.97;;;38.58;;
9801;SDS011;4940;50.900;4.672;2023-07-29T04:15:32;47.58;;;43.88;;
9801;SDS011;4940;50.900;4.672;2023-07-29T04:18:00;54.20;;;50.20;;
9801;SDS011;4940;50.900;4.672;2023-07-29T04:20:27;41.42;;;38.13;;
9801;SDS011;4940;50.900;4.672;2023-07-29T04:22:54;50.63;;;46.83;;
9801;SDS011;4940;50.900;4.672;2023-07-29T04:25:22;37.60;;;34.05;;
9801;SDS011;4940;50.900;4.672;2023-07-29T04:27:49;39.75;;;36.42;;
9801;SDS011;4940;50.900;4.672;2023-07-29T04:30:16;42.78;;;39.15;;
9801;SDS011;4940;50.900;4.672;2023-07-29T04:32:45;36.58;;;33.45;;
9801;SDS011;4940;50.900;4.672;2023-07-29T04:35:13;43.83;;;40.42;;
9801;SDS011;4940;50.900;4.672;2023-07-29T04:37:41;38.78;;;35.55;;
9801;SDS011;4940;50.900;4.672;2023-07-29T04:40:09;42.03;;;38.33;;
9801;SDS011;4940;50.900;4.672;2023-07-29T04:42:37;41.20;;;37.78;;
9801;SDS011;4940;50.900;4.672;2023-07-29T04:45:04;37.95;;;34.55;;
9801;SDS011;4940;50.900;4.672;2023-07-29T04:47:32;34.88;;;31.98;;
9801;SDS011;4940;50.900;4.672;2023-07-29T04:50:00;32.88;;;29.98;;
9801;SDS011;4940;50.900;4.672;2023-07-29T04:52:28;32.13;;;29.13;;
9801;SDS011;4940;50.900;4.672;2023-07-29T04:54:55;31.55;;;28.75;;
9801;SDS011;4940;50.900;4.672;2023-07-29T04:57:23;32.42;;;29.73;;
9801;SDS011;4940;50.900;4.672;2023-07-29T04:59:50;33.00;;;30.30;;
9801;SDS011;4940;50.900;4.672;2023-07-29T05:02:17;32.42;;;29.73;;
9801;SDS011;4940;50.900;4.672;2023-07-29T05:04:46;31.63;;;29.02;;
9801;SDS011;4940;50.900;4.672;2023-07-29T05:07:15;32.00;;;29.30;;
9801;SDS011;4940;50.900;4.672;2023-07-29T05:09:42;31.75;;;29.25;;
9801;SDS011;4940;50.900;4.672;2023-07-29T05:12:09;31.15;;;28.55;;
9801;SDS011;4940;50.900;4.672;2023-07-29T05:14:36;32.67;;;29.90;;
9801;SDS011;4940;50.900;4.672;2023-07-29T05:17:04;30.67;;;28.17;;
9801;SDS011;4940;50.900;4.672;2023-07-29T05:19:31;30.65;;;28.13;;
9801;SDS011;4940;50.900;4.672;2023-07-29T05:21:59;31.17;;;28.52;;
9801;SDS011;4940;50.900;4.672;2023-07-29T05:24:27;31.75;;;29.02;;
9801;SDS011;4940;50.900;4.672;2023-07-29T05:26:55;30.73;;;28.23;;
9801;SDS011;4940;50.900;4.672;2023-07-29T05:29:22;30.77;;;28.38;;
9801;SDS011;4940;50.900;4.672;2023-07-29T05:31:49;31.13;;;28.73;;
9801;SDS011;4940;50.900;4.672;2023-07-29T05:34:17;33.72;;;31.13;;
9801;SDS011;4940;50.900;4.672;2023-07-29T05:36:44;31.83;;;29.52;;
9801;SDS011;4940;50.900;4.672;2023-07-29T05:39:11;31.70;;;29.30;;
9801;SDS011;4940;50.900;4.672;2023-07-29T05:41:40;31.00;;;28.90;;
9801;SDS011;4940;50.900;4.672;2023-07-29T05:44:07;30.50;;;28.52;;
9801;SDS011;4940;50.900;4.672;2023-07-29T05:46:35;30.48;;;28.48;;
9801;SDS011;4940;50.900;4.672;2023-07-29T05:49:02;31.13;;;28.80;;
9801;SDS011;4940;50.900;4.672;2023-07-29T05:51:29;31.92;;;29.73;;
9801;SDS011;4940;50.900;4.672;2023-07-29T05:53:57;34.00;;;31.52;;
9801;SDS011;4940;50.900;4.672;2023-07-29T05:56:24;27.33;;;25.63;;
9801;SDS011;4940;50.900;4.672;2023-07-29T05:58:52;17.30;;;16.40;;
9801;SDS011;4940;50.900;4.672;2023-07-29T06:01:20;11.13;;;10.52;;
9801;SDS011;4940;50.900;4.672;2023-07-29T06:03:47;10.88;;;10.27;;
9801;SDS011;4940;50.900;4.672;2023-07-29T06:06:15;14.65;;;13.77;;
9801;SDS011;4940;50.900;4.672;2023-07-29T06:08:42;16.10;;;15.20;;
9801;SDS011;4940;50.900;4.672;2023-07-29T06:11:10;16.23;;;15.43;;
9801;SDS011;4940;50.900;4.672;2023-07-29T06:13:37;17.50;;;16.50;;
9801;SDS011;4940;50.900;4.672;2023-07-29T06:16:06;16.77;;;15.88;;
9801;SDS011;4940;50.900;4.672;2023-07-29T06:18:33;16.50;;;15.70;;
9801;SDS011;4940;50.900;4.672;2023-07-29T06:21:01;19.40;;;18.30;;
9801;SDS011;4940;50.900;4.672;2023-07-29T06:23:32;22.55;;;21.33;;
9801;SDS011;4940;50.900;4.672;2023-07-29T06:26:00;25.25;;;23.85;;
9801;SDS011;4940;50.900;4.672;2023-07-29T06:28:27;26.95;;;25.45;;
9801;SDS011;4940;50.900;4.672;2023-07-29T06:30:54;27.30;;;25.80;;
9801;SDS011;4940;50.900;4.672;2023-07-29T06:33:23;24.63;;;23.35;;
9801;SDS011;4940;50.900;4.672;2023-07-29T06:35:50;21.88;;;20.77;;
9801;SDS011;4940;50.900;4.672;2023-07-29T06:38:18;14.88;;;14.15;;
9801;SDS011;4940;50.900;4.672;2023-07-29T06:40:47;4.55;;;4.35;;
9801;SDS011;4940;50.900;4.672;2023-07-29T06:43:14;2.35;;;1.30;;
9801;SDS011;4940;50.900;4.672;2023-07-29T06:45:41;1.42;;;1.00;;
9801;SDS011;4940;50.900;4.672;2023-07-29T06:48:09;1.92;;;1.20;;
9801;SDS011;4940;50.900;4.672;2023-07-29T06:50:37;1.98;;;1.10;;
9801;SDS011;4940;50.900;4.672;2023-07-29T06:53:05;3.20;;;1.50;;
9801;SDS011;4940;50.900;4.672;2023-07-29T06:55:32;1.83;;;1.50;;
9801;SDS011;4940;50.900;4.672;2023-07-29T06:57:59;1.80;;;1.60;;
9801;SDS011;4940;50.900;4.672;2023-07-29T07:00:27;2.65;;;1.60;;
9801;SDS011;4940;50.900;4.672;2023-07-29T07:02:54;1.15;;;1.05;;
9801;SDS011;4940;50.900;4.672;2023-07-29T07:05:22;1.15;;;1.13;;
9801;SDS011;4940;50.900;4.672;2023-07-29T07:07:50;1.35;;;1.00;;
9801;SDS011;4940;50.900;4.672;2023-07-29T07:10:18;1.52;;;1.10;;
9801;SDS011;4940;50.900;4.672;2023-07-29T07:12:45;1.10;;;1.00;;
9801;SDS011;4940;50.900;4.672;2023-07-29T07:15:12;1.73;;;1.15;;
9801;SDS011;4940;50.900;4.672;2023-07-29T07:17:40;2.15;;;1.20;;
9801;SDS011;4940;50.900;4.672;2023-07-29T07:20:07;1.73;;;1.35;;
9801;SDS011;4940;50.900;4.672;2023-07-29T07:22:35;1.00;;;1.00;;
9801;SDS011;4940;50.900;4.672;2023-07-29T07:25:04;1.20;;;1.10;;
9801;SDS011;4940;50.900;4.672;2023-07-29T07:27:32;1.58;;;1.40;;
9801;SDS011;4940;50.900;4.672;2023-07-29T07:29:59;1.52;;;1.40;;
9801;SDS011;4940;50.900;4.672;2023-07-29T07:32:27;1.42;;;1.20;;
9801;SDS011;4940;50.900;4.672;2023-07-29T07:34:54;1.42;;;1.30;;
9801;SDS011;4940;50.900;4.672;2023-07-29T07:37:21;1.38;;;1.27;;
9801;SDS011;4940;50.900;4.672;2023-07-29T07:39:49;1.70;;;1.60;;
9801;SDS011;4940;50.900;4.672;2023-07-29T07:42:17;1.20;;;1.10;;
9801;SDS011;4940;50.900;4.672;2023-07-29T07:44:45;1.15;;;1.15;;
9801;SDS011;4940;50.900;4.672;2023-07-29T07:47:12;1.40;;;1.30;;
9801;SDS011;4940;50.900;4.672;2023-07-29T07:49:39;1.27;;;1.17;;
9801;SDS011;4940;50.900;4.672;2023-07-29T07:52:07;1.02;;;1.02;;
9801;SDS011;4940;50.900;4.672;2023-07-29T07:54:34;1.35;;;1.10;;
9801;SDS011;4940;50.900;4.672;2023-07-29T07:57:01;1.30;;;1.20;;
9801;SDS011;4940;50.900;4.672;2023-07-29T07:59:30;2.33;;;1.20;;
9801;SDS011;4940;50.900;4.672;2023-07-29T08:01:57;2.15;;;1.30;;
9801;SDS011;4940;50.900;4.672;2023-07-29T08:04:24;1.50;;;1.40;;
9801;SDS011;4940;50.900;4.672;2023-07-29T08:06:52;1.15;;;1.05;;
9801;SDS011;4940;50.900;4.672;2023-07-29T08:09:19;1.73;;;1.10;;
9801;SDS011;4940;50.900;4.672;2023-07-29T08:11:47;2.35;;;0.85;;
9801;SDS011;4940;50.900;4.672;2023-07-29T08:14:14;1.00;;;1.00;;
9801;SDS011;4940;50.900;4.672;2023-07-29T08:16:42;1.13;;;1.05;;
9801;SDS011;4940;50.900;4.672;2023-07-29T08:19:10;2.33;;;1.20;;
9801;SDS011;4940;50.900;4.672;2023-07-29T08:21:37;1.42;;;1.20;;
9801;SDS011;4940;50.900;4.672;2023-07-29T08:24:04;1.63;;;1.20;;
9801;SDS011;4940;50.900;4.672;2023-07-29T08:26:32;1.30;;;1.10;;
9801;SDS011;4940;50.900;4.672;2023-07-29T08:29:00;1.85;;;1.13;;
9801;SDS011;4940;50.900;4.672;2023-07-29T08:31:27;2.25;;;1.33;;
9801;SDS011;4940;50.900;4.672;2023-07-29T08:33:57;1.10;;;1.00;;
9801;SDS011;4940;50.900;4.672;2023-07-29T08:36:24;1.88;;;1.30;;
9801;SDS011;4940;50.900;4.672;2023-07-29T08:38:52;1.27;;;1.17;;
9801;SDS011;4940;50.900;4.672;2023-07-29T08:41:19;1.17;;;1.08;;
9801;SDS011;4940;50.900;4.672;2023-07-29T08:43:52;1.50;;;1.15;;
9801;SDS011;4940;50.900;4.672;2023-07-29T08:46:28;2.50;;;1.15;;
9801;SDS011;4940;50.900;4.672;2023-07-29T08:48:56;1.10;;;1.00;;
9801;SDS011;4940;50.900;4.672;2023-07-29T08:51:27;1.63;;;1.33;;
9801;SDS011;4940;50.900;4.672;2023-07-29T08:53:55;1.00;;;1.00;;
9801;SDS011;4940;50.900;4.672;2023-07-29T08:56:23;1.33;;;1.15;;
9801;SDS011;4940;50.900;4.672;2023-07-29T08:58:50;2.35;;;1.00;;
9801;SDS011;4940;50.900;4.672;2023-07-29T09:01:18;1.00;;;1.00;;
9801;SDS011;4940;50.900;4.672;2023-07-29T09:03:46;1.00;;;1.00;;
9801;SDS011;4940;50.900;4.672;2023-07-29T09:06:15;1.25;;;1.10;;
9801;SDS011;4940;50.900;4.672;2023-07-29T09:08:43;1.48;;;1.08;;
9801;SDS011;4940;50.900;4.672;2023-07-29T09:11:12;1.13;;;1.02;;
9801;SDS011;4940;50.900;4.672;2023-07-29T09:13:42;1.92;;;1.33;;
9801;SDS011;4940;50.900;4.672;2023-07-29T09:16:09;1.50;;;1.40;;
9801;SDS011;4940;50.900;4.672;2023-07-29T09:18:37;1.35;;;1.25;;
9801;SDS011;4940;50.900;4.672;2023-07-29T09:21:04;1.83;;;1.25;;
9801;SDS011;4940;50.900;4.672;2023-07-29T09:23:39;1.45;;;1.20;;
9801;SDS011;4940;50.900;4.672;2023-07-29T09:26:07;1.27;;;1.20;;
9801;SDS011;4940;50.900;4.672;2023-07-29T09:28:36;1.10;;;1.10;;
9801;SDS011;4940;50.900;4.672;2023-07-29T09:31:04;2.88;;;1.45;;
9801;SDS011;4940;50.900;4.672;2023-07-29T09:33:33;2.55;;;1.60;;
9801;SDS011;4940;50.900;4.672;2023-07-29T09:36:02;2.00;;;1.45;;
9801;SDS011;4940;50.900;4.672;2023-07-29T09:38:34;2.78;;;1.58;;
9801;SDS011;4940;50.900;4.672;2023-07-29T09:41:03;2.58;;;1.40;;
9801;SDS011;4940;50.900;4.672;2023-07-29T09:43:31;1.65;;;1.48;;
9801;SDS011;4940;50.900;4.672;2023-07-29T09:45:59;2.05;;;1.33;;
9801;SDS011;4940;50.900;4.672;2023-07-29T09:48:28;2.10;;;1.50;;
9801;SDS011;4940;50.900;4.672;2023-07-29T09:50:59;1.30;;;1.20;;
9801;SDS011;4940;50.900;4.672;2023-07-29T09:53:38;2.05;;;1.52;;
9801;SDS011;4940;50.900;4.672;2023-07-29T09:56:08;2.05;;;1.65;;
9801;SDS011;4940;50.900;4.672;2023-07-29T09:58:36;3.95;;;1.83;;
9801;SDS011;4940;50.900;4.672;2023-07-29T10:01:03;1.70;;;1.60;;
9801;SDS011;4940;50.900;4.672;2023-07-29T10:03:31;2.75;;;1.80;;
9801;SDS011;4940;50.900;4.672;2023-07-29T10:06:00;1.77;;;1.40;;
9801;SDS011;4940;50.900;4.672;2023-07-29T10:08:28;3.00;;;1.30;;
9801;SDS011;4940;50.900;4.672;2023-07-29T10:10:58;2.90;;;1.60;;
9801;SDS011;4940;50.900;4.672;2023-07-29T10:13:28;2.60;;;1.50;;
9801;SDS011;4940;50.900;4.672;2023-07-29T10:15:55;2.35;;;1.67;;
9801;SDS011;4940;50.900;4.672;2023-07-29T10:18:23;1.70;;;1.60;;
9801;SDS011;4940;50.900;4.672;2023-07-29T10:20:50;1.63;;;1.52;;
9801;SDS011;4940;50.900;4.672;2023-07-29T10:23:19;1.42;;;1.33;;
9801;SDS011;4940;50.900;4.672;2023-07-29T10:25:49;3.78;;;1.52;;
9801;SDS011;4940;50.900;4.672;2023-07-29T10:28:21;1.85;;;1.40;;
9801;SDS011;4940;50.900;4.672;2023-07-29T10:30:54;1.35;;;1.25;;
9801;SDS011;4940;50.900;4.672;2023-07-29T10:33:22;2.47;;;1.52;;
9801;SDS011;4940;50.900;4.672;2023-07-29T10:35:50;1.63;;;1.50;;
9801;SDS011;4940;50.900;4.672;2023-07-29T10:38:19;1.50;;;1.40;;
9801;SDS011;4940;50.900;4.672;2023-07-29T10:40:49;1.80;;;1.70;;
9801;SDS011;4940;50.900;4.672;2023-07-29T10:43:18;1.60;;;1.50;;
9801;SDS011;4940;50.900;4.672;2023-07-29T10:45:50;1.38;;;1.27;;
9801;SDS011;4940;50.900;4.672;2023-07-29T10:51:26;2.63;;;1.95;;
9801;SDS011;4940;50.900;4.672;2023-07-29T10:53:56;1.70;;;1.60;;
9801;SDS011;4940;50.900;4.672;2023-07-29T10:56:25;3.10;;;1.50;;
9801;SDS011;4940;50.900;4.672;2023-07-29T10:58:54;2.03;;;1.70;;
9801;SDS011;4940;50.900;4.672;2023-07-29T11:01:26;2.33;;;2.08;;
9801;SDS011;4940;50.900;4.672;2023-07-29T11:09:54;4.72;;;4.43;;
9801;SDS011;4940;50.900;4.672;2023-07-29T11:12:35;5.32;;;4.90;;
9801;SDS011;4940;50.900;4.672;2023-07-29T11:15:04;6.30;;;6.00;;
9801;SDS011;4940;50.900;4.672;2023-07-29T11:17:40;8.57;;;8.18;;
9801;SDS011;4940;50.900;4.672;2023-07-29T11:20:09;3.60;;;3.30;;
9801;SDS011;4940;50.900;4.672;2023-07-29T11:22:38;3.30;;;3.00;;
9801;SDS011;4940;50.900;4.672;2023-07-29T11:25:07;3.42;;;3.13;;
9801;SDS011;4940;50.900;4.672;2023-07-29T11:27:37;3.13;;;2.92;;
9801;SDS011;4940;50.900;4.672;2023-07-29T11:30:07;2.75;;;2.55;;
9801;SDS011;4940;50.900;4.672;2023-07-29T11:32:36;3.33;;;3.03;;
9801;SDS011;4940;50.900;4.672;2023-07-29T11:35:04;3.20;;;3.00;;
9801;SDS011;4940;50.900;4.672;2023-07-29T11:37:35;3.25;;;3.05;;
9801;SDS011;4940;50.900;4.672;2023-07-29T11:40:06;2.58;;;2.47;;
9801;SDS011;4940;50.900;4.672;2023-07-29T11:42:37;3.40;;;3.20;;
9801;SDS011;4940;50.900;4.672;2023-07-29T11:45:08;2.15;;;1.88;;
9801;SDS011;4940;50.900;4.672;2023-07-29T11:47:36;2.88;;;1.63;;
9801;SDS011;4940;50.900;4.672;2023-07-29T11:50:04;1.98;;;1.77;;
9801;SDS011;4940;50.900;4.672;2023-07-29T11:52:37;1.98;;;1.77;;
9801;SDS011;4940;50.900;4.672;2023-07-29T11:55:06;1.80;;;1.70;;
9801;SDS011;4940;50.900;4.672;2023-07-29T11:57:37;1.63;;;1.52;;
9801;SDS011;4940;50.900;4.672;2023-07-29T12:00:06;3.38;;;1.80;;
9801;SDS011;4940;50.900;4.672;2023-07-29T12:02:36;1.50;;;1.40;;
9801;SDS011;4940;50.900;4.672;2023-07-29T12:05:04;1.50;;;1.40;;
9801;SDS011;4940;50.900;4.672;2023-07-29T12:07:32;1.70;;;1.60;;
9801;SDS011;4940;50.900;4.672;2023-07-29T12:10:07;1.40;;;1.30;;
9801;SDS011;4940;50.900;4.672;2023-07-29T12:12:42;1.70;;;1.60;;
9801;SDS011;4940;50.900;4.672;2023-07-29T12:15:11;1.50;;;1.40;;
9801;SDS011;4940;50.900;4.672;2023-07-29T12:17:39;1.85;;;1.60;;
9801;SDS011;4940;50.900;4.672;2023-07-29T12:20:08;1.60;;;1.50;;
9801;SDS011;4940;50.900;4.672;2023-07-29T12:22:36;1.85;;;1.73;;
9801;SDS011;4940;50.900;4.672;2023-07-29T12:25:08;1.67;;;1.48;;
9801;SDS011;4940;50.900;4.672;2023-07-29T12:27:37;1.52;;;1.42;;
9801;SDS011;4940;50.900;4.672;2023-07-29T12:30:08;1.67;;;1.58;;
9801;SDS011;4940;50.900;4.672;2023-07-29T12:32:42;2.17;;;1.98;;
9801;SDS011;4940;50.900;4.672;2023-07-29T12:35:14;2.38;;;1.80;;
9801;SDS011;4940;50.900;4.672;2023-07-29T12:37:44;2.28;;;1.80;;
9801;SDS011;4940;50.900;4.672;2023-07-29T12:40:23;2.20;;;2.00;;
9801;SDS011;4940;50.900;4.672;2023-07-29T12:42:52;3.85;;;3.55;;
9801;SDS011;4940;50.900;4.672;2023-07-29T12:45:20;4.35;;;4.05;;
9801;SDS011;4940;50.900;4.672;2023-07-29T12:47:48;4.85;;;4.55;;
9801;SDS011;4940;50.900;4.672;2023-07-29T12:50:16;6.05;;;5.65;;
9801;SDS011;4940;50.900;4.672;2023-07-29T12:52:43;10.10;;;9.40;;
9801;SDS011;4940;50.900;4.672;2023-07-29T12:55:10;13.13;;;12.32;;
9801;SDS011;4940;50.900;4.672;2023-07-29T12:57:42;15.98;;;14.98;;
9801;SDS011;4940;50.900;4.672;2023-07-29T13:00:10;27.60;;;25.90;;
9801;SDS011;4940;50.900;4.672;2023-07-29T13:02:41;34.90;;;32.42;;
9801;SDS011;4940;50.900;4.672;2023-07-29T13:05:09;34.70;;;32.03;;
9801;SDS011;4940;50.900;4.672;2023-07-29T13:07:37;34.50;;;31.80;;
9801;SDS011;4940;50.900;4.672;2023-07-29T13:10:06;33.80;;;31.52;;
9801;SDS011;4940;50.900;4.672;2023-07-29T13:12:34;33.22;;;31.15;;
9801;SDS011;4940;50.900;4.672;2023-07-29T13:15:06;33.38;;;31.27;;
9801;SDS011;4940;50.900;4.672;2023-07-29T13:17:34;33.95;;;31.75;;
9801;SDS011;4940;50.900;4.672;2023-07-29T13:20:03;32.58;;;30.38;;
9801;SDS011;4940;50.900;4.672;2023-07-29T13:22:31;30.35;;;28.65;;
9801;SDS011;4940;50.900;4.672;2023-07-29T13:24:58;30.23;;;28.52;;
9801;SDS011;4940;50.900;4.672;2023-07-29T13:27:26;27.40;;;26.00;;
9801;SDS011;4940;50.900;4.672;2023-07-29T13:29:54;24.40;;;23.15;;
9801;SDS011;4940;50.900;4.672;2023-07-29T13:32:22;21.38;;;20.27;;
9801;SDS011;4940;50.900;4.672;2023-07-29T13:34:50;15.43;;;14.57;;
9801;SDS011;4940;50.900;4.672;2023-07-29T13:37:17;11.00;;;10.40;;
9801;SDS011;4940;50.900;4.672;2023-07-29T13:39:44;11.95;;;11.35;;
9801;SDS011;4940;50.900;4.672;2023-07-29T13:42:12;7.05;;;6.65;;
9801;SDS011;4940;50.900;4.672;2023-07-29T13:44:39;8.05;;;7.65;;
9801;SDS011;4940;50.900;4.672;2023-07-29T13:47:07;6.57;;;6.20;;
9801;SDS011;4940;50.900;4.672;2023-07-29T13:49:35;4.85;;;4.55;;
9801;SDS011;4940;50.900;4.672;2023-07-29T13:52:02;3.42;;;3.15;;
9801;SDS011;4940;50.900;4.672;2023-07-29T13:54:30;3.00;;;2.80;;
9801;SDS011;4940;50.900;4.672;2023-07-29T13:56:57;4.20;;;3.97;;
9801;SDS011;4940;50.900;4.672;2023-07-29T13:59:25;4.15;;;3.85;;
9801;SDS011;4940;50.900;4.672;2023-07-29T14:01:52;3.35;;;3.15;;
9801;SDS011;4940;50.900;4.672;2023-07-29T14:04:20;2.55;;;2.35;;
9801;SDS011;4940;50.900;4.672;2023-07-29T14:06:48;2.25;;;2.15;;
9801;SDS011;4940;50.900;4.672;2023-07-29T14:09:15;3.45;;;2.10;;
9801;SDS011;4940;50.900;4.672;2023-07-29T14:11:43;3.15;;;2.13;;
9801;SDS011;4940;50.900;4.672;2023-07-29T14:14:10;1.95;;;1.85;;
9801;SDS011;4940;50.900;4.672;2023-07-29T14:16:38;2.10;;;1.90;;
9801;SDS011;4940;50.900;4.672;2023-07-29T14:19:05;2.55;;;1.90;;
9801;SDS011;4940;50.900;4.672;2023-07-29T14:21:32;2.13;;;2.03;;
9801;SDS011;4940;50.900;4.672;2023-07-29T14:24:01;2.10;;;1.98;;
9801;SDS011;4940;50.900;4.672;2023-07-29T14:26:28;1.77;;;1.67;;
9801;SDS011;4940;50.900;4.672;2023-07-29T14:28:56;1.80;;;1.70;;
9801;SDS011;4940;50.900;4.672;2023-07-29T14:31:23;2.50;;;2.30;;
9801;SDS011;4940;50.900;4.672;2023-07-29T14:33:51;2.45;;;2.25;;
9801;SDS011;4940;50.900;4.672;2023-07-29T14:36:18;1.90;;;1.80;;
9801;SDS011;4940;50.900;4.672;2023-07-29T14:38:45;1.70;;;1.60;;
9801;SDS011;4940;50.900;4.672;2023-07-29T14:41:14;1.70;;;1.60;;
9801;SDS011;4940;50.900;4.672;2023-07-29T14:43:41;1.90;;;1.48;;
9801;SDS011;4940;50.900;4.672;2023-07-29T14:46:08;1.65;;;1.55;;
9801;SDS011;4940;50.900;4.672;2023-07-29T14:48:36;1.50;;;1.40;;
9801;SDS011;4940;50.900;4.672;2023-07-29T14:51:03;1.55;;;1.45;;
9801;SDS011;4940;50.900;4.672;2023-07-29T14:53:30;1.70;;;1.50;;
9801;SDS011;4940;50.900;4.672;2023-07-29T14:55:58;3.40;;;1.60;;
9801;SDS011;4940;50.900;4.672;2023-07-29T14:58:27;1.55;;;1.30;;
9801;SDS011;4940;50.900;4.672;2023-07-29T15:00:54;1.38;;;1.27;;
9801;SDS011;4940;50.900;4.672;2023-07-29T15:03:21;3.03;;;2.72;;
9801;SDS011;4940;50.900;4.672;2023-07-29T15:05:49;2.08;;;1.65;;
9801;SDS011;4940;50.900;4.672;2023-07-29T15:08:17;2.22;;;1.30;;
9801;SDS011;4940;50.900;4.672;2023-07-29T15:10:44;1.50;;;1.40;;
9801;SDS011;4940;50.900;4.672;2023-07-29T15:13:12;1.50;;;1.40;;
9801;SDS011;4940;50.900;4.672;2023-07-29T15:15:41;2.20;;;1.55;;
9801;SDS011;4940;50.900;4.672;2023-07-29T15:18:09;1.50;;;1.40;;